sensor_id;sensor_type;location;lat;lon;timestamp;pressure;altitude;pressure_sealevel;temperature;humidity
61287;BME280;56412;53.148;8.204;2022-07-04T00:02:24;101871.94;;;17.44;62.05
61287;BME280;56412;53.148;8.204;2022-07-04T00:04:49;101874.88;;;17.40;62.48
61287;BME280;56412;53.148;8.204;2022-07-04T00:07:14;101876.66;;;17.39;62.15
61287;BME280;56412;53.148;8.204;2022-07-04T00:09:39;101871.22;;;17.30;62.92
61287;BME280;56412;53.148;8.204;2022-07-04T00:12:05;101884.91;;;17.20;62.73
61287;BME280;56412;53.148;8.204;2022-07-04T00:14:30;101873.72;;;17.18;62.26
61287;BME280;56412;53.148;8.204;2022-07-04T00:16:55;101875.50;;;17.18;63.08
61287;BME280;56412;53.148;8.204;2022-07-04T00:19:21;101880.72;;;17.18;62.79
61287;BME280;56412;53.148;8.204;2022-07-04T00:21:46;101878.13;;;17.18;62.69
61287;BME280;56412;53.148;8.204;2022-07-04T00:24:11;101879.03;;;17.17;62.34
61287;BME280;56412;53.148;8.204;2022-07-04T00:26:36;101876.84;;;17.11;62.58
61287;BME280;56412;53.148;8.204;2022-07-04T00:29:02;101878.50;;;17.12;63.09
61287;BME280;56412;53.148;8.204;2022-07-04T00:31:27;101869.69;;;17.00;64.05
61287;BME280;56412;53.148;8.204;2022-07-04T00:33:52;101873.25;;;17.12;63.47
61287;BME280;56412;53.148;8.204;2022-07-04T00:36:18;101872.75;;;17.07;63.66
61287;BME280;56412;53.148;8.204;2022-07-04T00:38:43;101864.50;;;17.13;63.03
61287;BME280;56412;53.148;8.204;2022-07-04T00:41:08;101868.16;;;17.10;62.87
61287;BME280;56412;53.148;8.204;2022-07-04T00:43:34;101872.31;;;17.00;63.12
61287;BME280;56412;53.148;8.204;2022-07-04T00:46:02;101873.88;;;17.02;62.98
61287;BME280;56412;53.148;8.204;2022-07-04T00:48:27;101875.53;;;16.91;63.41
61287;BME280;56412;53.148;8.204;2022-07-04T00:50:53;101877.75;;;16.97;63.52
61287;BME280;56412;53.148;8.204;2022-07-04T00:53:18;101886.06;;;17.03;63.54
61287;BME280;56412;53.148;8.204;2022-07-04T00:55:44;101877.16;;;17.06;62.71
61287;BME280;56412;53.148;8.204;2022-07-04T00:58:09;101880.91;;;17.02;62.53
61287;BME280;56412;53.148;8.204;2022-07-04T01:00:37;101886.25;;;17.00;62.88
61287;BME280;56412;53.148;8.204;2022-07-04T01:03:03;101888.13;;;16.98;62.77
61287;BME280;56412;53.148;8.204;2022-07-04T01:05:29;101891.22;;;16.91;62.82
61287;BME280;56412;53.148;8.204;2022-07-04T01:07:54;101889.56;;;16.90;62.99
61287;BME280;56412;53.148;8.204;2022-07-04T01:10:19;101897.00;;;16.83;63.14
61287;BME280;56412;53.148;8.204;2022-07-04T01:12:44;101889.78;;;16.87;62.44
61287;BME280;56412;53.148;8.204;2022-07-04T01:15:09;101891.13;;;16.79;62.99
61287;BME280;56412;53.148;8.204;2022-07-04T01:17:35;101885.03;;;16.79;62.87
61287;BME280;56412;53.148;8.204;2022-07-04T01:20:00;101883.16;;;16.81;62.95
61287;BME280;56412;53.148;8.204;2022-07-04T01:22:25;101881.56;;;16.78;62.50
61287;BME280;56412;53.148;8.204;2022-07-04T01:24:51;101884.47;;;16.74;63.28
61287;BME280;56412;53.148;8.204;2022-07-04T01:27:16;101881.31;;;16.69;62.81
61287;BME280;56412;53.148;8.204;2022-07-04T01:29:42;101896.47;;;16.64;63.58
61287;BME280;56412;53.148;8.204;2022-07-04T01:32:07;101884.88;;;16.68;63.01
61287;BME280;56412;53.148;8.204;2022-07-04T01:34:33;101883.38;;;16.64;63.27
61287;BME280;56412;53.148;8.204;2022-07-04T01:36:59;101889.56;;;16.63;63.21
61287;BME280;56412;53.148;8.204;2022-07-04T01:39:24;101888.38;;;16.54;63.00
61287;BME280;56412;53.148;8.204;2022-07-04T01:41:49;101883.59;;;16.61;63.37
61287;BME280;56412;53.148;8.204;2022-07-04T01:44:14;101881.97;;;16.45;63.83
61287;BME280;56412;53.148;8.204;2022-07-04T01:46:39;101886.41;;;16.57;63.50
61287;BME280;56412;53.148;8.204;2022-07-04T01:49:05;101886.69;;;16.53;63.64
61287;BME280;56412;53.148;8.204;2022-07-04T01:51:30;101891.88;;;16.40;63.94
61287;BME280;56412;53.148;8.204;2022-07-04T01:53:55;101896.47;;;16.37;64.26
61287;BME280;56412;53.148;8.204;2022-07-04T01:56:20;101897.53;;;16.47;63.44
61287;BME280;56412;53.148;8.204;2022-07-04T01:58:45;101898.50;;;16.46;63.25
61287;BME280;56412;53.148;8.204;2022-07-04T02:01:11;101903.53;;;16.49;63.26
61287;BME280;56412;53.148;8.204;2022-07-04T02:03:54;101905.91;;;16.39;63.32
61287;BME280;56412;53.148;8.204;2022-07-04T02:06:19;101901.63;;;16.24;63.49
61287;BME280;56412;53.148;8.204;2022-07-04T02:08:44;101902.09;;;16.30;62.85
61287;BME280;56412;53.148;8.204;2022-07-04T02:11:28;101896.41;;;16.24;63.43
61287;BME280;56412;53.148;8.204;2022-07-04T02:13:53;101900.38;;;16.29;63.23
61287;BME280;56412;53.148;8.204;2022-07-04T02:16:18;101896.75;;;16.18;63.84
61287;BME280;56412;53.148;8.204;2022-07-04T02:18:44;101901.44;;;16.27;63.12
61287;BME280;56412;53.148;8.204;2022-07-04T02:21:09;101893.41;;;16.30;63.04
61287;BME280;56412;53.148;8.204;2022-07-04T02:23:34;101893.47;;;16.28;62.72
61287;BME280;56412;53.148;8.204;2022-07-04T02:25:59;101893.88;;;16.22;63.14
61287;BME280;56412;53.148;8.204;2022-07-04T02:28:24;101897.53;;;16.05;64.13
61287;BME280;56412;53.148;8.204;2022-07-04T02:30:50;101893.81;;;16.09;64.16
61287;BME280;56412;53.148;8.204;2022-07-04T02:33:15;101889.03;;;16.16;62.96
61287;BME280;56412;53.148;8.204;2022-07-04T02:35:40;101888.47;;;16.11;63.00
61287;BME280;56412;53.148;8.204;2022-07-04T02:38:05;101879.25;;;16.05;62.69
61287;BME280;56412;53.148;8.204;2022-07-04T02:40:30;101886.75;;;15.97;63.63
61287;BME280;56412;53.148;8.204;2022-07-04T02:42:56;101886.63;;;15.99;63.45
61287;BME280;56412;53.148;8.204;2022-07-04T02:45:21;101881.03;;;16.05;63.38
61287;BME280;56412;53.148;8.204;2022-07-04T02:47:46;101892.13;;;16.08;63.35
61287;BME280;56412;53.148;8.204;2022-07-04T02:50:11;101885.41;;;16.04;63.88
61287;BME280;56412;53.148;8.204;2022-07-04T02:52:36;101883.75;;;16.03;63.18
61287;BME280;56412;53.148;8.204;2022-07-04T02:55:02;101874.97;;;16.04;63.16
61287;BME280;56412;53.148;8.204;2022-07-04T02:57:27;101875.03;;;16.03;63.48
61287;BME280;56412;53.148;8.204;2022-07-04T02:59:52;101878.59;;;16.02;63.91
61287;BME280;56412;53.148;8.204;2022-07-04T03:02:17;101881.97;;;15.89;64.19
61287;BME280;56412;53.148;8.204;2022-07-04T03:04:43;101888.03;;;16.04;63.74
61287;BME280;56412;53.148;8.204;2022-07-04T03:07:08;101880.56;;;15.98;63.98
61287;BME280;56412;53.148;8.204;2022-07-04T03:09:33;101884.47;;;15.91;64.33
61287;BME280;56412;53.148;8.204;2022-07-04T03:11:59;101876.75;;;15.89;64.20
61287;BME280;56412;53.148;8.204;2022-07-04T03:14:24;101879.25;;;16.05;63.18
61287;BME280;56412;53.148;8.204;2022-07-04T03:16:49;101876.81;;;16.02;63.17
61287;BME280;56412;53.148;8.204;2022-07-04T03:19:14;101879.81;;;15.96;63.97
61287;BME280;56412;53.148;8.204;2022-07-04T03:21:42;101875.91;;;16.03;63.27
61287;BME280;56412;53.148;8.204;2022-07-04T03:24:07;101874.31;;;16.01;63.40
61287;BME280;56412;53.148;8.204;2022-07-04T03:26:34;101879.16;;;15.93;63.58
61287;BME280;56412;53.148;8.204;2022-07-04T03:28:59;101884.56;;;16.04;63.40
61287;BME280;56412;53.148;8.204;2022-07-04T03:31:25;101882.03;;;16.02;63.90
61287;BME280;56412;53.148;8.204;2022-07-04T03:33:50;101887.50;;;16.26;62.50
61287;BME280;56412;53.148;8.204;2022-07-04T03:36:15;101887.63;;;16.25;62.87
61287;BME280;56412;53.148;8.204;2022-07-04T03:38:41;101892.53;;;16.29;62.38
61287;BME280;56412;53.148;8.204;2022-07-04T03:41:06;101894.31;;;16.29;62.47
61287;BME280;56412;53.148;8.204;2022-07-04T03:43:31;101891.44;;;16.33;61.91
61287;BME280;56412;53.148;8.204;2022-07-04T03:45:56;101895.31;;;16.41;62.13
61287;BME280;56412;53.148;8.204;2022-07-04T03:48:22;101905.72;;;16.28;62.19
61287;BME280;56412;53.148;8.204;2022-07-04T03:50:47;101899.28;;;16.33;62.02
61287;BME280;56412;53.148;8.204;2022-07-04T03:53:12;101890.00;;;16.42;61.67
61287;BME280;56412;53.148;8.204;2022-07-04T03:55:38;101907.91;;;16.48;61.42
61287;BME280;56412;53.148;8.204;2022-07-04T03:58:04;101906.88;;;16.51;61.25
61287;BME280;56412;53.148;8.204;2022-07-04T04:00:29;101916.31;;;16.53;61.01
61287;BME280;56412;53.148;8.204;2022-07-04T04:02:55;101913.50;;;16.56;61.00
61287;BME280;56412;53.148;8.204;2022-07-04T04:05:20;101920.41;;;16.57;60.91
61287;BME280;56412;53.148;8.204;2022-07-04T04:07:51;101921.81;;;16.49;61.54
61287;BME280;56412;53.148;8.204;2022-07-04T04:10:16;101925.44;;;16.61;61.04
61287;BME280;56412;53.148;8.204;2022-07-04T04:12:42;101927.66;;;16.67;61.09
61287;BME280;56412;53.148;8.204;2022-07-04T04:15:07;101927.22;;;16.60;61.54
61287;BME280;56412;53.148;8.204;2022-07-04T04:17:32;101928.66;;;16.51;62.11
61287;BME280;56412;53.148;8.204;2022-07-04T04:19:58;101928.81;;;16.63;61.50
61287;BME280;56412;53.148;8.204;2022-07-04T04:22:23;101929.50;;;16.79;60.92
61287;BME280;56412;53.148;8.204;2022-07-04T04:24:48;101932.41;;;16.89;60.67
61287;BME280;56412;53.148;8.204;2022-07-04T04:27:13;101933.03;;;16.92;60.64
61287;BME280;56412;53.148;8.204;2022-07-04T04:29:39;101928.56;;;17.07;60.17
61287;BME280;56412;53.148;8.204;2022-07-04T04:32:04;101932.50;;;17.00;60.21
61287;BME280;56412;53.148;8.204;2022-07-04T04:34:29;101933.44;;;16.86;60.75
61287;BME280;56412;53.148;8.204;2022-07-04T04:36:54;101937.59;;;17.16;59.61
61287;BME280;56412;53.148;8.204;2022-07-04T04:39:20;101939.25;;;17.17;59.62
61287;BME280;56412;53.148;8.204;2022-07-04T04:41:45;101944.31;;;17.33;58.99
61287;BME280;56412;53.148;8.204;2022-07-04T04:44:10;101958.56;;;16.89;60.50
61287;BME280;56412;53.148;8.204;2022-07-04T04:46:35;101947.25;;;17.28;59.52
61287;BME280;56412;53.148;8.204;2022-07-04T04:49:00;101952.94;;;17.47;58.54
61287;BME280;56412;53.148;8.204;2022-07-04T04:51:26;101953.47;;;17.65;58.18
61287;BME280;56412;53.148;8.204;2022-07-04T04:53:51;101956.41;;;17.74;57.89
61287;BME280;56412;53.148;8.204;2022-07-04T04:56:16;101952.53;;;17.79;57.80
61287;BME280;56412;53.148;8.204;2022-07-04T04:58:41;101952.09;;;17.60;57.84
61287;BME280;56412;53.148;8.204;2022-07-04T05:01:06;101954.56;;;17.88;57.59
61287;BME280;56412;53.148;8.204;2022-07-04T05:03:32;101946.69;;;17.88;57.12
61287;BME280;56412;53.148;8.204;2022-07-04T05:05:57;101945.28;;;18.08;56.69
61287;BME280;56412;53.148;8.204;2022-07-04T05:08:22;101945.63;;;18.04;56.82
61287;BME280;56412;53.148;8.204;2022-07-04T05:10:50;101948.56;;;18.12;56.35
61287;BME280;56412;53.148;8.204;2022-07-04T05:13:15;101954.50;;;18.14;56.31
61287;BME280;56412;53.148;8.204;2022-07-04T05:15:40;101956.38;;;18.25;55.25
61287;BME280;56412;53.148;8.204;2022-07-04T05:18:06;101961.31;;;18.16;55.41
61287;BME280;56412;53.148;8.204;2022-07-04T05:20:31;101957.31;;;18.36;55.03
61287;BME280;56412;53.148;8.204;2022-07-04T05:22:57;101958.50;;;18.56;54.49
61287;BME280;56412;53.148;8.204;2022-07-04T05:25:22;101952.16;;;18.35;54.92
61287;BME280;56412;53.148;8.204;2022-07-04T05:27:48;101951.13;;;18.61;54.15
61287;BME280;56412;53.148;8.204;2022-07-04T05:30:14;101959.78;;;18.51;54.66
61287;BME280;56412;53.148;8.204;2022-07-04T05:32:40;101967.41;;;18.91;53.40
61287;BME280;56412;53.148;8.204;2022-07-04T05:35:06;101964.00;;;18.65;53.64
61287;BME280;56412;53.148;8.204;2022-07-04T05:37:31;101958.38;;;18.95;52.59
61287;BME280;56412;53.148;8.204;2022-07-04T05:39:56;101952.28;;;19.29;52.01
61287;BME280;56412;53.148;8.204;2022-07-04T05:42:22;101956.34;;;19.34;51.84
61287;BME280;56412;53.148;8.204;2022-07-04T05:44:47;101944.94;;;19.57;51.72
61287;BME280;56412;53.148;8.204;2022-07-04T05:47:12;101948.75;;;19.64;51.38
61287;BME280;56412;53.148;8.204;2022-07-04T05:49:37;101948.06;;;19.73;50.84
61287;BME280;56412;53.148;8.204;2022-07-04T05:52:03;101947.16;;;19.86;51.03
61287;BME280;56412;53.148;8.204;2022-07-04T05:54:28;101945.22;;;20.10;51.17
61287;BME280;56412;53.148;8.204;2022-07-04T05:56:53;101950.97;;;20.15;50.79
61287;BME280;56412;53.148;8.204;2022-07-04T05:59:18;101947.72;;;20.23;50.80
61287;BME280;56412;53.148;8.204;2022-07-04T06:01:44;101952.94;;;19.44;51.68
61287;BME280;56412;53.148;8.204;2022-07-04T06:04:09;101948.75;;;19.53;51.35
61287;BME280;56412;53.148;8.204;2022-07-04T06:06:34;101951.06;;;20.14;50.77
61287;BME280;56412;53.148;8.204;2022-07-04T06:08:59;101944.50;;;19.97;50.92
61287;BME280;56412;53.148;8.204;2022-07-04T06:11:25;101958.13;;;20.36;50.47
61287;BME280;56412;53.148;8.204;2022-07-04T06:13:50;101943.50;;;20.54;50.39
61287;BME280;56412;53.148;8.204;2022-07-04T06:16:16;101941.69;;;20.66;49.59
61287;BME280;56412;53.148;8.204;2022-07-04T06:18:41;101935.47;;;20.56;49.87
61287;BME280;56412;53.148;8.204;2022-07-04T06:21:07;101948.94;;;20.19;50.55
61287;BME280;56412;53.148;8.204;2022-07-04T06:23:32;101930.78;;;20.71;49.43
61287;BME280;56412;53.148;8.204;2022-07-04T06:25:57;101934.28;;;20.60;49.37
61287;BME280;56412;53.148;8.204;2022-07-04T06:28:23;101944.06;;;20.69;48.71
61287;BME280;56412;53.148;8.204;2022-07-04T06:30:48;101941.34;;;20.48;49.30
61287;BME280;56412;53.148;8.204;2022-07-04T06:33:13;101942.94;;;20.17;50.03
61287;BME280;56412;53.148;8.204;2022-07-04T06:35:38;101934.34;;;20.04;50.78
61287;BME280;56412;53.148;8.204;2022-07-04T06:40:48;101946.03;;;20.22;51.14
61287;BME280;56412;53.148;8.204;2022-07-04T06:43:13;101956.88;;;20.51;50.15
61287;BME280;56412;53.148;8.204;2022-07-04T06:45:39;101947.81;;;20.87;49.04
61287;BME280;56412;53.148;8.204;2022-07-04T06:48:04;101949.41;;;20.79;49.45
61287;BME280;56412;53.148;8.204;2022-07-04T06:50:31;101961.09;;;20.97;47.97
61287;BME280;56412;53.148;8.204;2022-07-04T06:52:58;101970.56;;;21.21;47.85
61287;BME280;56412;53.148;8.204;2022-07-04T06:55:23;101971.78;;;20.84;47.62
61287;BME280;56412;53.148;8.204;2022-07-04T06:57:48;101969.19;;;21.26;47.55
61287;BME280;56412;53.148;8.204;2022-07-04T07:00:14;101959.59;;;21.37;47.83
61287;BME280;56412;53.148;8.204;2022-07-04T07:02:39;101973.88;;;21.02;47.32
61287;BME280;56412;53.148;8.204;2022-07-04T07:05:04;101968.75;;;21.00;47.46
61287;BME280;56412;53.148;8.204;2022-07-04T07:07:30;101968.63;;;21.23;46.78
61287;BME280;56412;53.148;8.204;2022-07-04T07:09:55;101952.44;;;21.48;46.43
61287;BME280;56412;53.148;8.204;2022-07-04T07:12:21;101957.09;;;21.03;47.58
61287;BME280;56412;53.148;8.204;2022-07-04T07:14:46;101950.97;;;21.02;47.30
61287;BME280;56412;53.148;8.204;2022-07-04T07:17:12;101952.66;;;21.87;45.61
61287;BME280;56412;53.148;8.204;2022-07-04T07:19:37;101947.38;;;22.18;45.01
61287;BME280;56412;53.148;8.204;2022-07-04T07:22:02;101939.84;;;22.13;44.11
61287;BME280;56412;53.148;8.204;2022-07-04T07:24:27;101945.31;;;22.21;43.56
61287;BME280;56412;53.148;8.204;2022-07-04T07:26:55;101941.31;;;21.66;44.77
61287;BME280;56412;53.148;8.204;2022-07-04T07:29:21;101935.53;;;21.82;44.14
61287;BME280;56412;53.148;8.204;2022-07-04T07:31:46;101939.63;;;21.95;43.02
61287;BME280;56412;53.148;8.204;2022-07-04T07:34:11;101943.78;;;22.19;43.19
61287;BME280;56412;53.148;8.204;2022-07-04T07:36:37;101948.19;;;21.88;43.85
61287;BME280;56412;53.148;8.204;2022-07-04T07:39:02;101952.09;;;21.93;43.26
61287;BME280;56412;53.148;8.204;2022-07-04T07:41:27;101937.72;;;21.97;43.66
61287;BME280;56412;53.148;8.204;2022-07-04T07:43:52;101941.84;;;22.00;43.04
61287;BME280;56412;53.148;8.204;2022-07-04T07:46:17;101944.09;;;22.05;43.39
61287;BME280;56412;53.148;8.204;2022-07-04T07:48:43;101938.72;;;22.06;42.66
61287;BME280;56412;53.148;8.204;2022-07-04T07:51:09;101947.91;;;21.81;43.43
61287;BME280;56412;53.148;8.204;2022-07-04T07:53:34;101939.50;;;22.37;42.80
61287;BME280;56412;53.148;8.204;2022-07-04T07:56:00;101936.69;;;22.29;42.38
61287;BME280;56412;53.148;8.204;2022-07-04T07:58:25;101932.84;;;22.53;42.29
61287;BME280;56412;53.148;8.204;2022-07-04T08:00:50;101939.66;;;22.36;41.93
61287;BME280;56412;53.148;8.204;2022-07-04T08:03:15;101931.34;;;22.79;41.70
61287;BME280;56412;53.148;8.204;2022-07-04T08:05:59;101931.19;;;23.20;40.80
61287;BME280;56412;53.148;8.204;2022-07-04T08:08:25;101923.59;;;22.97;41.16
61287;BME280;56412;53.148;8.204;2022-07-04T08:10:50;101928.66;;;23.47;40.34
61287;BME280;56412;53.148;8.204;2022-07-04T08:13:15;101944.22;;;23.50;39.88
61287;BME280;56412;53.148;8.204;2022-07-04T08:15:40;101938.00;;;23.42;39.98
61287;BME280;56412;53.148;8.204;2022-07-04T08:18:06;101927.72;;;23.76;39.52
61287;BME280;56412;53.148;8.204;2022-07-04T08:20:31;101933.00;;;23.86;39.04
61287;BME280;56412;53.148;8.204;2022-07-04T08:22:56;101935.06;;;23.45;38.90
61287;BME280;56412;53.148;8.204;2022-07-04T08:25:21;101924.19;;;23.95;39.31
61287;BME280;56412;53.148;8.204;2022-07-04T08:27:47;101925.03;;;24.13;39.19
61287;BME280;56412;53.148;8.204;2022-07-04T08:30:12;101930.75;;;24.18;38.71
61287;BME280;56412;53.148;8.204;2022-07-04T08:32:37;101926.69;;;24.14;39.18
61287;BME280;56412;53.148;8.204;2022-07-04T08:35:03;101926.66;;;23.59;39.22
61287;BME280;56412;53.148;8.204;2022-07-04T08:37:28;101921.91;;;23.63;40.25
61287;BME280;56412;53.148;8.204;2022-07-04T08:39:54;101912.69;;;24.67;38.06
61287;BME280;56412;53.148;8.204;2022-07-04T08:42:20;101881.50;;;24.25;37.88
61287;BME280;56412;53.148;8.204;2022-07-04T08:44:49;101919.94;;;24.30;37.42
61287;BME280;56412;53.148;8.204;2022-07-04T08:47:16;101900.63;;;24.37;38.21
61287;BME280;56412;53.148;8.204;2022-07-04T08:49:42;101921.31;;;24.87;36.64
61287;BME280;56412;53.148;8.204;2022-07-04T08:52:09;101920.13;;;24.64;37.33
61287;BME280;56412;53.148;8.204;2022-07-04T08:54:35;101925.78;;;25.05;36.30
61287;BME280;56412;53.148;8.204;2022-07-04T08:57:20;101927.19;;;25.69;36.43
61287;BME280;56412;53.148;8.204;2022-07-04T09:00:05;101922.97;;;25.24;36.30
61287;BME280;56412;53.148;8.204;2022-07-04T09:02:30;101937.56;;;25.28;35.82
61287;BME280;56412;53.148;8.204;2022-07-04T09:04:58;101920.00;;;25.53;35.38
61287;BME280;56412;53.148;8.204;2022-07-04T09:07:23;101930.13;;;26.43;34.22
61287;BME280;56412;53.148;8.204;2022-07-04T09:09:49;101926.88;;;26.15;34.03
61287;BME280;56412;53.148;8.204;2022-07-04T09:12:14;101926.22;;;26.04;34.36
61287;BME280;56412;53.148;8.204;2022-07-04T09:14:40;101919.84;;;25.89;34.07
61287;BME280;56412;53.148;8.204;2022-07-04T09:17:05;101920.06;;;25.70;34.70
61287;BME280;56412;53.148;8.204;2022-07-04T09:19:31;101935.84;;;25.45;35.23
61287;BME280;56412;53.148;8.204;2022-07-04T09:21:57;101922.59;;;26.22;34.37
61287;BME280;56412;53.148;8.204;2022-07-04T09:27:10;101922.63;;;24.83;36.41
61287;BME280;56412;53.148;8.204;2022-07-04T09:29:51;101920.06;;;25.70;34.51
61287;BME280;56412;53.148;8.204;2022-07-04T09:32:23;101929.66;;;25.89;34.45
61287;BME280;56412;53.148;8.204;2022-07-04T09:34:55;101924.53;;;25.69;33.44
61287;BME280;56412;53.148;8.204;2022-07-04T09:37:20;101918.72;;;26.50;32.69
61287;BME280;56412;53.148;8.204;2022-07-04T09:39:45;101928.47;;;26.50;32.76
61287;BME280;56412;53.148;8.204;2022-07-04T09:42:10;101928.91;;;25.00;34.24
61287;BME280;56412;53.148;8.204;2022-07-04T09:44:43;101925.56;;;25.42;34.01
61287;BME280;56412;53.148;8.204;2022-07-04T09:47:22;101918.56;;;26.01;34.04
61287;BME280;56412;53.148;8.204;2022-07-04T09:52:25;101903.94;;;26.56;32.97
61287;BME280;56412;53.148;8.204;2022-07-04T09:54:52;101910.03;;;27.38;31.67
61287;BME280;56412;53.148;8.204;2022-07-04T09:57:22;101901.94;;;26.58;31.38
61287;BME280;56412;53.148;8.204;2022-07-04T09:59:47;101907.72;;;25.87;31.53
61287;BME280;56412;53.148;8.204;2022-07-04T10:02:12;101901.63;;;25.94;32.15
61287;BME280;56412;53.148;8.204;2022-07-04T10:07:07;101901.41;;;27.20;30.52
61287;BME280;56412;53.148;8.204;2022-07-04T10:09:33;101888.41;;;27.89;29.30
61287;BME280;56412;53.148;8.204;2022-07-04T10:11:58;101900.34;;;27.54;30.16
61287;BME280;56412;53.148;8.204;2022-07-04T10:14:23;101895.09;;;26.88;29.79
61287;BME280;56412;53.148;8.204;2022-07-04T10:16:48;101885.81;;;27.17;30.08
61287;BME280;56412;53.148;8.204;2022-07-04T10:19:14;101903.22;;;27.36;29.09
61287;BME280;56412;53.148;8.204;2022-07-04T10:21:39;101892.41;;;27.37;29.67
61287;BME280;56412;53.148;8.204;2022-07-04T10:24:05;101891.63;;;27.04;30.01
61287;BME280;56412;53.148;8.204;2022-07-04T10:26:30;101896.56;;;27.32;30.10
61287;BME280;56412;53.148;8.204;2022-07-04T10:28:56;101891.81;;;26.78;30.96
61287;BME280;56412;53.148;8.204;2022-07-04T10:31:23;101897.44;;;27.08;30.55
61287;BME280;56412;53.148;8.204;2022-07-04T10:33:49;101882.00;;;27.03;29.88
61287;BME280;56412;53.148;8.204;2022-07-04T10:41:11;101888.03;;;27.53;29.92
61287;BME280;56412;53.148;8.204;2022-07-04T10:43:37;101895.13;;;26.80;29.96
61287;BME280;56412;53.148;8.204;2022-07-04T10:49:02;101882.78;;;28.61;28.09
61287;BME280;56412;53.148;8.204;2022-07-04T10:51:41;101881.09;;;27.35;29.41
61287;BME280;56412;53.148;8.204;2022-07-04T10:54:08;101890.31;;;27.64;28.91
61287;BME280;56412;53.148;8.204;2022-07-04T10:56:35;101893.09;;;27.79;28.96
61287;BME280;56412;53.148;8.204;2022-07-04T10:59:02;101880.94;;;27.76;29.13
61287;BME280;56412;53.148;8.204;2022-07-04T11:01:28;101891.56;;;27.37;29.55
61287;BME280;56412;53.148;8.204;2022-07-04T11:03:53;101891.38;;;26.16;31.94
61287;BME280;56412;53.148;8.204;2022-07-04T11:07:19;101890.81;;;25.61;32.23
61287;BME280;56412;53.148;8.204;2022-07-04T11:11:57;101875.59;;;32.80;23.02
61287;BME280;56412;53.148;8.204;2022-07-04T11:14:39;101866.41;;;33.86;21.08
61287;BME280;56412;53.148;8.204;2022-07-04T11:17:05;101873.03;;;33.77;21.79
61287;BME280;56412;53.148;8.204;2022-07-04T11:19:31;101871.47;;;34.07;20.73
61287;BME280;56412;53.148;8.204;2022-07-04T11:21:56;101876.97;;;36.99;17.83
61287;BME280;56412;53.148;8.204;2022-07-04T11:24:22;101877.28;;;36.44;17.53
61287;BME280;56412;53.148;8.204;2022-07-04T11:26:48;101870.78;;;35.79;18.96
61287;BME280;56412;53.148;8.204;2022-07-04T11:29:13;101865.88;;;34.34;20.20
61287;BME280;56412;53.148;8.204;2022-07-04T11:31:39;101870.69;;;35.56;18.64
61287;BME280;56412;53.148;8.204;2022-07-04T11:34:05;101858.13;;;37.85;16.73
61287;BME280;56412;53.148;8.204;2022-07-04T11:36:30;101857.63;;;38.00;17.38
61287;BME280;56412;53.148;8.204;2022-07-04T11:38:57;101851.19;;;39.61;14.73
61287;BME280;56412;53.148;8.204;2022-07-04T11:41:23;101866.13;;;32.51;21.67
61287;BME280;56412;53.148;8.204;2022-07-04T11:44:08;101872.31;;;32.45;21.75
61287;BME280;56412;53.148;8.204;2022-07-04T11:47:03;101852.09;;;30.20;25.71
61287;BME280;56412;53.148;8.204;2022-07-04T11:49:28;101872.69;;;31.67;24.02
61287;BME280;56412;53.148;8.204;2022-07-04T11:51:53;101849.31;;;32.09;23.34
61287;BME280;56412;53.148;8.204;2022-07-04T11:54:20;101861.59;;;28.68;29.50
61287;BME280;56412;53.148;8.204;2022-07-04T11:56:46;101855.78;;;27.48;30.64
61287;BME280;56412;53.148;8.204;2022-07-04T11:59:14;101850.09;;;26.95;31.83
61287;BME280;56412;53.148;8.204;2022-07-04T12:01:41;101855.41;;;30.65;25.93
61287;BME280;56412;53.148;8.204;2022-07-04T12:04:13;101854.78;;;35.36;20.72
61287;BME280;56412;53.148;8.204;2022-07-04T12:06:39;101848.75;;;32.80;23.11
61287;BME280;56412;53.148;8.204;2022-07-04T12:09:05;101850.25;;;34.74;21.34
61287;BME280;56412;53.148;8.204;2022-07-04T12:14:34;101842.66;;;33.83;21.89
61287;BME280;56412;53.148;8.204;2022-07-04T12:17:09;101843.59;;;32.19;23.63
61287;BME280;56412;53.148;8.204;2022-07-04T12:19:35;101846.94;;;34.72;20.68
61287;BME280;56412;53.148;8.204;2022-07-04T12:22:00;101859.50;;;37.99;16.85
61287;BME280;56412;53.148;8.204;2022-07-04T12:24:36;101830.47;;;37.49;18.10
61287;BME280;56412;53.148;8.204;2022-07-04T12:27:03;101842.34;;;40.35;15.78
61287;BME280;56412;53.148;8.204;2022-07-04T12:29:28;101829.72;;;39.82;16.06
61287;BME280;56412;53.148;8.204;2022-07-04T12:31:54;101830.16;;;40.06;16.17
61287;BME280;56412;53.148;8.204;2022-07-04T12:34:19;101830.28;;;38.69;17.02
61287;BME280;56412;53.148;8.204;2022-07-04T12:36:55;101823.47;;;37.82;17.01
61287;BME280;56412;53.148;8.204;2022-07-04T12:39:32;101824.75;;;34.95;19.74
61287;BME280;56412;53.148;8.204;2022-07-04T12:42:10;101816.00;;;35.67;17.89
61287;BME280;56412;53.148;8.204;2022-07-04T12:44:37;101817.66;;;37.90;16.72
61287;BME280;56412;53.148;8.204;2022-07-04T12:47:03;101824.75;;;36.58;16.46
61287;BME280;56412;53.148;8.204;2022-07-04T12:49:28;101827.75;;;37.09;16.31
61287;BME280;56412;53.148;8.204;2022-07-04T12:52:06;101830.84;;;33.32;20.40
61287;BME280;56412;53.148;8.204;2022-07-04T12:54:31;101822.94;;;32.86;20.31
61287;BME280;56412;53.148;8.204;2022-07-04T12:59:34;101829.72;;;34.30;19.49
61287;BME280;56412;53.148;8.204;2022-07-04T13:01:59;101820.75;;;31.13;22.54
61287;BME280;56412;53.148;8.204;2022-07-04T13:04:24;101815.13;;;32.38;21.20
61287;BME280;56412;53.148;8.204;2022-07-04T13:06:49;101808.63;;;37.39;16.90
61287;BME280;56412;53.148;8.204;2022-07-04T13:09:15;101801.69;;;37.43;16.04
61287;BME280;56412;53.148;8.204;2022-07-04T13:11:40;101815.16;;;37.14;16.38
61287;BME280;56412;53.148;8.204;2022-07-04T13:14:24;101816.38;;;37.35;16.15